ENY4488 KBGR-KLGA
Flight info
| Callsign | ENY4488 |
|---|---|
| Flight time | 1h 10m |
| Altitude | 30000 |
| Route | ALB HAARP4 |
| Aircraft | E75L/M-SDE3GILORVW/S |
Departure
| Time | 2026-04-22 18:46 |
|---|---|
| Airport | Bangor International Airport (KBGR) |
Arrival
| Time | 2026-04-22 19:56 |
|---|---|
| Airport | LaGuardia Airport (KLGA) |
| Time | Latitude | Longitude | Altitude | Speed | Heading |
|---|---|---|---|---|---|
| 2026-04-22 18:41 | 44.81848 | -68.83826 | 200 ft | 21 kts | 316° |
| 2026-04-22 18:41 | 44.81956 | -68.83980 | 197 ft | 22 kts | 313° |
| 2026-04-22 18:41 | 44.81994 | -68.84105 | 194 ft | 9 kts | 258° |
| 2026-04-22 18:42 | 44.81965 | -68.84169 | 192 ft | 8 kts | 227° |
| 2026-04-22 18:42 | 44.81921 | -68.84234 | 190 ft | 3 kts | 224° |
| 2026-04-22 18:44 | 44.81920 | -68.84235 | 190 ft | 0 kts | 224° |
| 2026-04-22 18:44 | 44.81916 | -68.84241 | 190 ft | 2 kts | 224° |
| 2026-04-22 18:45 | 44.81890 | -68.84277 | 189 ft | 8 kts | 225° |
| 2026-04-22 18:45 | 44.81816 | -68.84328 | 189 ft | 17 kts | 171° |
| 2026-04-22 18:45 | 44.81627 | -68.84094 | 193 ft | 67 kts | 135° |
| 2026-04-22 18:45 | 44.81104 | -68.83337 | 190 ft | 145 kts | 139° |
| 2026-04-22 18:46 | 44.80286 | -68.82215 | 804 ft | 169 kts | 140° |
| 2026-04-22 18:46 | 44.79400 | -68.81037 | 1462 ft | 194 kts | 139° |
| 2026-04-22 18:46 | 44.78284 | -68.79646 | 2117 ft | 218 kts | 145° |
| 2026-04-22 18:46 | 44.77070 | -68.78618 | 3253 ft | 209 kts | 158° |
| 2026-04-22 18:47 | 44.75605 | -68.77907 | 3644 ft | 233 kts | 176° |
| 2026-04-22 18:47 | 44.74051 | -68.78325 | 4588 ft | 229 kts | 210° |
| 2026-04-22 18:47 | 44.72846 | -68.79644 | 5660 ft | 222 kts | 226° |
| 2026-04-22 18:47 | 44.71928 | -68.81401 | 6425 ft | 229 kts | 242° |
| 2026-04-22 18:48 | 44.71230 | -68.83471 | 6997 ft | 243 kts | 244° |
| 2026-04-22 18:48 | 44.70493 | -68.85630 | 7829 ft | 245 kts | 243° |
| 2026-04-22 18:48 | 44.69737 | -68.87791 | 8633 ft | 247 kts | 243° |
| 2026-04-22 18:48 | 44.68973 | -68.89946 | 9397 ft | 249 kts | 243° |
| 2026-04-22 18:49 | 44.68174 | -68.92117 | 10090 ft | 253 kts | 244° |
| 2026-04-22 18:49 | 44.67361 | -68.94344 | 10636 ft | 263 kts | 245° |
| 2026-04-22 18:49 | 44.66505 | -68.96697 | 11081 ft | 275 kts | 245° |
| 2026-04-22 18:49 | 44.65622 | -68.99126 | 11545 ft | 285 kts | 246° |
| 2026-04-22 18:50 | 44.64703 | -69.01653 | 11986 ft | 296 kts | 246° |
| 2026-04-22 18:50 | 44.63757 | -69.04255 | 12466 ft | 303 kts | 246° |
| 2026-04-22 18:50 | 44.62788 | -69.06913 | 13105 ft | 304 kts | 247° |
| 2026-04-22 18:50 | 44.61823 | -69.09557 | 13724 ft | 306 kts | 247° |
| 2026-04-22 18:51 | 44.60862 | -69.12189 | 14283 ft | 308 kts | 248° |
| 2026-04-22 18:51 | 44.59869 | -69.14909 | 14829 ft | 311 kts | 248° |
| 2026-04-22 18:51 | 44.58892 | -69.17580 | 15352 ft | 313 kts | 248° |
| 2026-04-22 18:51 | 44.57896 | -69.20298 | 15865 ft | 315 kts | 248° |
| 2026-04-22 18:52 | 44.56882 | -69.23064 | 16358 ft | 317 kts | 248° |
| 2026-04-22 18:52 | 44.55870 | -69.25822 | 16833 ft | 319 kts | 249° |
| 2026-04-22 18:52 | 44.54857 | -69.28578 | 17277 ft | 322 kts | 249° |
| 2026-04-22 18:52 | 44.53829 | -69.31374 | 17735 ft | 323 kts | 249° |
| 2026-04-22 18:53 | 44.52791 | -69.34194 | 18180 ft | 325 kts | 249° |
| 2026-04-22 18:53 | 44.51765 | -69.36975 | 18745 ft | 322 kts | 249° |
| 2026-04-22 18:53 | 44.50750 | -69.39728 | 19315 ft | 318 kts | 250° |
| 2026-04-22 18:53 | 44.49730 | -69.42489 | 19809 ft | 317 kts | 250° |
| 2026-04-22 18:54 | 44.48721 | -69.45221 | 20287 ft | 316 kts | 250° |
| 2026-04-22 18:54 | 44.47716 | -69.47935 | 20762 ft | 314 kts | 250° |
| 2026-04-22 18:54 | 44.46709 | -69.50653 | 21218 ft | 313 kts | 250° |
| 2026-04-22 18:54 | 44.45710 | -69.53351 | 21652 ft | 312 kts | 251° |
| 2026-04-22 18:55 | 44.44711 | -69.56044 | 22094 ft | 310 kts | 251° |
| 2026-04-22 18:55 | 44.43727 | -69.58691 | 22524 ft | 308 kts | 251° |
| 2026-04-22 18:55 | 44.42744 | -69.61335 | 22927 ft | 307 kts | 251° |
| 2026-04-22 18:55 | 44.41761 | -69.63979 | 23342 ft | 305 kts | 251° |
| 2026-04-22 18:56 | 44.40891 | -69.66313 | 23709 ft | 303 kts | 250° |
| 2026-04-22 18:56 | 44.39889 | -69.68997 | 24110 ft | 302 kts | 251° |
| 2026-04-22 18:56 | 44.38993 | -69.71402 | 24454 ft | 301 kts | 251° |
| 2026-04-22 18:56 | 44.38027 | -69.73990 | 24840 ft | 299 kts | 251° |
| 2026-04-22 18:57 | 44.37059 | -69.76581 | 25198 ft | 298 kts | 251° |
| 2026-04-22 18:57 | 44.36109 | -69.79117 | 25563 ft | 296 kts | 251° |
| 2026-04-22 18:57 | 44.35150 | -69.81678 | 25903 ft | 295 kts | 251° |
| 2026-04-22 18:57 | 44.34203 | -69.84204 | 26249 ft | 293 kts | 251° |
| 2026-04-22 18:58 | 44.33261 | -69.86713 | 26567 ft | 292 kts | 251° |
| 2026-04-22 18:58 | 44.32311 | -69.89246 | 26882 ft | 291 kts | 251° |
| 2026-04-22 18:58 | 44.31491 | -69.91425 | 27166 ft | 290 kts | 252° |
| 2026-04-22 18:58 | 44.30635 | -69.93699 | 27439 ft | 288 kts | 252° |
| 2026-04-22 18:59 | 44.29713 | -69.96152 | 27726 ft | 287 kts | 252° |
| 2026-04-22 18:59 | 44.28789 | -69.98600 | 28020 ft | 286 kts | 252° |
| 2026-04-22 18:59 | 44.27867 | -70.01045 | 28281 ft | 285 kts | 252° |
| 2026-04-22 18:59 | 44.26941 | -70.03498 | 28536 ft | 284 kts | 252° |
| 2026-04-22 19:00 | 44.26024 | -70.05927 | 28807 ft | 283 kts | 252° |
| 2026-04-22 19:00 | 44.25109 | -70.08347 | 29052 ft | 282 kts | 252° |
| 2026-04-22 19:00 | 44.24195 | -70.10760 | 29285 ft | 281 kts | 252° |
| 2026-04-22 19:00 | 44.23284 | -70.13165 | 29500 ft | 281 kts | 252° |
| 2026-04-22 19:01 | 44.22380 | -70.15553 | 29750 ft | 279 kts | 252° |
| 2026-04-22 19:01 | 44.21482 | -70.17917 | 29971 ft | 278 kts | 252° |
| 2026-04-22 19:01 | 44.20576 | -70.20303 | 30139 ft | 279 kts | 252° |
| 2026-04-22 19:01 | 44.19657 | -70.22729 | 30156 ft | 285 kts | 252° |
| 2026-04-22 19:02 | 44.18727 | -70.25176 | 30161 ft | 291 kts | 252° |
| 2026-04-22 19:02 | 44.17767 | -70.27698 | 30162 ft | 297 kts | 252° |
| 2026-04-22 19:02 | 44.15803 | -70.32846 | 30161 ft | 308 kts | 252° |
| 2026-04-22 19:03 | 44.13757 | -70.38203 | 30159 ft | 319 kts | 251° |
| 2026-04-22 19:03 | 44.11629 | -70.43761 | 30158 ft | 329 kts | 251° |
| 2026-04-22 19:04 | 44.09453 | -70.49434 | 30157 ft | 338 kts | 251° |
| 2026-04-22 19:04 | 44.07212 | -70.55263 | 30156 ft | 346 kts | 251° |
| 2026-04-22 19:05 | 44.04909 | -70.61243 | 30155 ft | 353 kts | 251° |
| 2026-04-22 19:05 | 44.02753 | -70.66824 | 30164 ft | 360 kts | 250° |
| 2026-04-22 19:06 | 44.00430 | -70.72831 | 30165 ft | 367 kts | 250° |
| 2026-04-22 19:07 | 43.96757 | -70.82302 | 30163 ft | 376 kts | 250° |
| 2026-04-22 19:07 | 43.94269 | -70.88696 | 30138 ft | 377 kts | 250° |
| 2026-04-22 19:08 | 43.91785 | -70.95072 | 30116 ft | 377 kts | 250° |
| 2026-04-22 19:08 | 43.89471 | -71.00991 | 30088 ft | 378 kts | 250° |
| 2026-04-22 19:09 | 43.87038 | -71.07209 | 30068 ft | 377 kts | 250° |
| 2026-04-22 19:09 | 43.84946 | -71.12539 | 30066 ft | 377 kts | 250° |
| 2026-04-22 19:10 | 43.82064 | -71.19869 | 30072 ft | 375 kts | 251° |
| 2026-04-22 19:10 | 43.79563 | -71.26217 | 30083 ft | 374 kts | 251° |
| 2026-04-22 19:11 | 43.77079 | -71.32502 | 30094 ft | 374 kts | 251° |
| 2026-04-22 19:11 | 43.74574 | -71.38834 | 30105 ft | 373 kts | 251° |
| 2026-04-22 19:12 | 43.72079 | -71.45122 | 30116 ft | 372 kts | 251° |
| 2026-04-22 19:12 | 43.69591 | -71.51376 | 30126 ft | 371 kts | 251° |
| 2026-04-22 19:13 | 43.67114 | -71.57595 | 30136 ft | 371 kts | 251° |
| 2026-04-22 19:13 | 43.64633 | -71.63806 | 30136 ft | 371 kts | 251° |
| 2026-04-22 19:14 | 43.62164 | -71.69976 | 30148 ft | 371 kts | 251° |
| 2026-04-22 19:14 | 43.59707 | -71.76102 | 30148 ft | 372 kts | 251° |
| 2026-04-22 19:15 | 43.57612 | -71.81314 | 30148 ft | 372 kts | 251° |
| 2026-04-22 19:15 | 43.54686 | -71.88578 | 30147 ft | 373 kts | 251° |
| 2026-04-22 19:16 | 43.52162 | -71.94833 | 30147 ft | 373 kts | 250° |
| 2026-04-22 19:16 | 43.49646 | -72.01050 | 30146 ft | 374 kts | 250° |
| 2026-04-22 19:17 | 43.47103 | -72.07323 | 30137 ft | 375 kts | 250° |
| 2026-04-22 19:17 | 43.44548 | -72.13606 | 30127 ft | 375 kts | 250° |
| 2026-04-22 19:18 | 43.42035 | -72.19778 | 30117 ft | 376 kts | 250° |
| 2026-04-22 19:18 | 43.39498 | -72.25993 | 30108 ft | 376 kts | 250° |
| 2026-04-22 19:19 | 43.36917 | -72.32303 | 30107 ft | 376 kts | 250° |
| 2026-04-22 19:19 | 43.34343 | -72.38582 | 30107 ft | 377 kts | 250° |
| 2026-04-22 19:20 | 43.31765 | -72.44860 | 30106 ft | 377 kts | 250° |
| 2026-04-22 19:20 | 43.29182 | -72.51129 | 30105 ft | 377 kts | 250° |
| 2026-04-22 19:21 | 43.26617 | -72.57348 | 30105 ft | 377 kts | 250° |
| 2026-04-22 19:21 | 43.24024 | -72.63618 | 30105 ft | 377 kts | 250° |
| 2026-04-22 19:22 | 43.21814 | -72.68950 | 30115 ft | 378 kts | 249° |
| 2026-04-22 19:22 | 43.19212 | -72.75217 | 30116 ft | 379 kts | 249° |
| 2026-04-22 19:23 | 43.16606 | -72.81483 | 30120 ft | 380 kts | 249° |
| 2026-04-22 19:23 | 43.13961 | -72.87822 | 30124 ft | 381 kts | 249° |
| 2026-04-22 19:24 | 43.11341 | -72.94093 | 30128 ft | 382 kts | 249° |
| 2026-04-22 19:24 | 43.08695 | -73.00410 | 30128 ft | 383 kts | 249° |
| 2026-04-22 19:24 | 43.07351 | -73.03623 | 29782 ft | 392 kts | 249° |
| 2026-04-22 19:25 | 43.06063 | -73.06692 | 29457 ft | 401 kts | 248° |
| 2026-04-22 19:25 | 43.04647 | -73.10060 | 29099 ft | 409 kts | 248° |
| 2026-04-22 19:25 | 43.03291 | -73.13285 | 28762 ft | 417 kts | 248° |
| 2026-04-22 19:25 | 43.01835 | -73.16741 | 28403 ft | 424 kts | 247° |
| 2026-04-22 19:26 | 43.00348 | -73.20263 | 28044 ft | 431 kts | 247° |
| 2026-04-22 19:26 | 42.98851 | -73.23798 | 27911 ft | 431 kts | 247° |
| 2026-04-22 19:26 | 42.97338 | -73.27377 | 27802 ft | 431 kts | 247° |
| 2026-04-22 19:26 | 42.95849 | -73.30891 | 27624 ft | 427 kts | 247° |
| 2026-04-22 19:27 | 42.94378 | -73.34357 | 27218 ft | 419 kts | 247° |
| 2026-04-22 19:27 | 42.92928 | -73.37772 | 26835 ft | 411 kts | 247° |
| 2026-04-22 19:27 | 42.91508 | -73.41116 | 26431 ft | 404 kts | 247° |
| 2026-04-22 19:27 | 42.90107 | -73.44409 | 26024 ft | 398 kts | 247° |
| 2026-04-22 19:28 | 42.88806 | -73.47464 | 25630 ft | 393 kts | 247° |
| 2026-04-22 19:28 | 42.87446 | -73.50655 | 25212 ft | 388 kts | 247° |
| 2026-04-22 19:28 | 42.86105 | -73.53799 | 24797 ft | 384 kts | 246° |
| 2026-04-22 19:28 | 42.84749 | -73.56969 | 24439 ft | 378 kts | 246° |
| 2026-04-22 19:29 | 42.83443 | -73.60020 | 24157 ft | 373 kts | 247° |
| 2026-04-22 19:29 | 42.82149 | -73.63040 | 24087 ft | 365 kts | 247° |
| 2026-04-22 19:29 | 42.80911 | -73.65936 | 24089 ft | 369 kts | 246° |
| 2026-04-22 19:29 | 42.79607 | -73.68977 | 24094 ft | 374 kts | 246° |
| 2026-04-22 19:30 | 42.79171 | -73.69994 | 24095 ft | 375 kts | 246° |
| 2026-04-22 19:30 | 42.76934 | -73.75163 | 24090 ft | 384 kts | 243° |
| 2026-04-22 19:30 | 42.75016 | -73.77773 | 24092 ft | 405 kts | 220° |
| 2026-04-22 19:30 | 42.72467 | -73.79222 | 24095 ft | 425 kts | 198° |
| 2026-04-22 19:31 | 42.69464 | -73.79332 | 24099 ft | 442 kts | 176° |
| 2026-04-22 19:31 | 42.66405 | -73.78607 | 24107 ft | 446 kts | 175° |
| 2026-04-22 19:31 | 42.63332 | -73.77934 | 24104 ft | 448 kts | 175° |
| 2026-04-22 19:31 | 42.60231 | -73.77278 | 24106 ft | 451 kts | 175° |
| 2026-04-22 19:32 | 42.57144 | -73.76630 | 24109 ft | 453 kts | 175° |
| 2026-04-22 19:32 | 42.54022 | -73.75976 | 24112 ft | 455 kts | 175° |
| 2026-04-22 19:32 | 42.50853 | -73.75314 | 23942 ft | 461 kts | 175° |
| 2026-04-22 19:32 | 42.47698 | -73.74656 | 23431 ft | 458 kts | 175° |
| 2026-04-22 19:33 | 42.44594 | -73.74007 | 22936 ft | 454 kts | 175° |
| 2026-04-22 19:33 | 42.41444 | -73.73349 | 22432 ft | 451 kts | 175° |
| 2026-04-22 19:33 | 42.38363 | -73.72708 | 22026 ft | 444 kts | 175° |
| 2026-04-22 19:33 | 42.35371 | -73.72084 | 21935 ft | 432 kts | 175° |
| 2026-04-22 19:34 | 42.32440 | -73.71476 | 21695 ft | 424 kts | 175° |
| 2026-04-22 19:34 | 42.29552 | -73.70877 | 21435 ft | 418 kts | 175° |
| 2026-04-22 19:34 | 42.26669 | -73.70278 | 21080 ft | 415 kts | 175° |
| 2026-04-22 19:34 | 42.23857 | -73.69697 | 20785 ft | 411 kts | 175° |
| 2026-04-22 19:35 | 42.21021 | -73.69109 | 20454 ft | 408 kts | 175° |
| 2026-04-22 19:35 | 42.18238 | -73.68533 | 20107 ft | 406 kts | 175° |
| 2026-04-22 19:35 | 42.16391 | -73.68153 | 19888 ft | 404 kts | 175° |
| 2026-04-22 19:35 | 42.12700 | -73.67388 | 19498 ft | 400 kts | 175° |
| 2026-04-22 19:36 | 42.09950 | -73.66821 | 19243 ft | 396 kts | 175° |
| 2026-04-22 19:36 | 42.07257 | -73.66265 | 18932 ft | 394 kts | 175° |
| 2026-04-22 19:36 | 42.04539 | -73.65706 | 18630 ft | 392 kts | 175° |
| 2026-04-22 19:36 | 42.01869 | -73.65157 | 18334 ft | 390 kts | 175° |
| 2026-04-22 19:37 | 41.99197 | -73.64607 | 18056 ft | 388 kts | 175° |
| 2026-04-22 19:37 | 41.96539 | -73.64061 | 17767 ft | 386 kts | 175° |
| 2026-04-22 19:37 | 41.93899 | -73.63520 | 17486 ft | 384 kts | 175° |
| 2026-04-22 19:37 | 41.91239 | -73.62974 | 17201 ft | 383 kts | 175° |
| 2026-04-22 19:38 | 41.88633 | -73.62440 | 16936 ft | 381 kts | 175° |
| 2026-04-22 19:38 | 41.86037 | -73.61909 | 16671 ft | 379 kts | 175° |
| 2026-04-22 19:38 | 41.83425 | -73.61373 | 16406 ft | 377 kts | 175° |
| 2026-04-22 19:38 | 41.80837 | -73.60861 | 16149 ft | 374 kts | 178° |
| 2026-04-22 19:39 | 41.78307 | -73.61221 | 15814 ft | 361 kts | 204° |
| 2026-04-22 19:39 | 41.76214 | -73.62955 | 15499 ft | 346 kts | 229° |
| 2026-04-22 19:39 | 41.74693 | -73.65385 | 15229 ft | 340 kts | 237° |
| 2026-04-22 19:39 | 41.73338 | -73.67979 | 14965 ft | 338 kts | 240° |
| 2026-04-22 19:40 | 41.72055 | -73.70602 | 14685 ft | 337 kts | 241° |
| 2026-04-22 19:40 | 41.70797 | -73.73235 | 14426 ft | 335 kts | 241° |
| 2026-04-22 19:40 | 41.69541 | -73.75886 | 14175 ft | 334 kts | 241° |
| 2026-04-22 19:40 | 41.68319 | -73.78471 | 13935 ft | 333 kts | 241° |
| 2026-04-22 19:41 | 41.66931 | -73.80984 | 13650 ft | 339 kts | 226° |
| 2026-04-22 19:41 | 41.64875 | -73.82517 | 13388 ft | 349 kts | 200° |
| 2026-04-22 19:41 | 41.62541 | -73.83216 | 13187 ft | 349 kts | 196° |
| 2026-04-22 19:41 | 41.60102 | -73.83881 | 12953 ft | 348 kts | 195° |
| 2026-04-22 19:42 | 41.57718 | -73.84507 | 12732 ft | 347 kts | 195° |
| 2026-04-22 19:42 | 41.55368 | -73.85119 | 12536 ft | 346 kts | 195° |
| 2026-04-22 19:42 | 41.53136 | -73.85696 | 12348 ft | 345 kts | 195° |
| 2026-04-22 19:42 | 41.50791 | -73.86301 | 12129 ft | 342 kts | 195° |
| 2026-04-22 19:43 | 41.46170 | -73.87495 | 11414 ft | 337 kts | 194° |
| 2026-04-22 19:43 | 41.43821 | -73.87607 | 11011 ft | 342 kts | 172° |
| 2026-04-22 19:43 | 41.41645 | -73.86339 | 10626 ft | 345 kts | 149° |
| 2026-04-22 19:44 | 41.39636 | -73.84594 | 10222 ft | 337 kts | 148° |
| 2026-04-22 19:44 | 41.37729 | -73.82888 | 9420 ft | 335 kts | 148° |
| 2026-04-22 19:44 | 41.35818 | -73.81164 | 8852 ft | 325 kts | 148° |
| 2026-04-22 19:44 | 41.34002 | -73.79518 | 8444 ft | 312 kts | 148° |
| 2026-04-22 19:45 | 41.32258 | -73.77939 | 8001 ft | 279 kts | 148° |
| 2026-04-22 19:45 | 41.30714 | -73.76540 | 8024 ft | 264 kts | 149° |
| 2026-04-22 19:45 | 41.29195 | -73.75170 | 8026 ft | 263 kts | 149° |
| 2026-04-22 19:45 | 41.27691 | -73.73814 | 8030 ft | 265 kts | 149° |
| 2026-04-22 19:46 | 41.26186 | -73.72453 | 8032 ft | 269 kts | 149° |
| 2026-04-22 19:46 | 41.24625 | -73.71046 | 8032 ft | 273 kts | 149° |
| 2026-04-22 19:46 | 41.23049 | -73.69624 | 8032 ft | 276 kts | 149° |
| 2026-04-22 19:46 | 41.21451 | -73.68182 | 8033 ft | 278 kts | 149° |
| 2026-04-22 19:47 | 41.19864 | -73.66751 | 7967 ft | 275 kts | 149° |
| 2026-04-22 19:47 | 41.18275 | -73.65320 | 7770 ft | 276 kts | 149° |
| 2026-04-22 19:47 | 41.17218 | -73.64367 | 7652 ft | 276 kts | 149° |
| 2026-04-22 19:47 | 41.15097 | -73.62459 | 7457 ft | 274 kts | 149° |
| 2026-04-22 19:48 | 41.13591 | -73.61106 | 7317 ft | 273 kts | 150° |
| 2026-04-22 19:48 | 41.11907 | -73.60307 | 7130 ft | 263 kts | 182° |
| 2026-04-22 19:48 | 41.10226 | -73.60899 | 6995 ft | 246 kts | 217° |
| 2026-04-22 19:48 | 41.09136 | -73.62548 | 6797 ft | 238 kts | 236° |
| 2026-04-22 19:49 | 41.07970 | -73.64127 | 6557 ft | 241 kts | 222° |
| 2026-04-22 19:49 | 41.06502 | -73.65262 | 6325 ft | 243 kts | 210° |
| 2026-04-22 19:49 | 41.05010 | -73.66306 | 6095 ft | 242 kts | 211° |
| 2026-04-22 19:49 | 41.03562 | -73.67341 | 5776 ft | 234 kts | 212° |
| 2026-04-22 19:50 | 41.02139 | -73.68372 | 5334 ft | 231 kts | 211° |
| 2026-04-22 19:50 | 41.00734 | -73.69395 | 4842 ft | 230 kts | 211° |
| 2026-04-22 19:50 | 40.99347 | -73.70403 | 4493 ft | 223 kts | 210° |
| 2026-04-22 19:50 | 40.98152 | -73.71270 | 4241 ft | 215 kts | 210° |
| 2026-04-22 19:51 | 40.96836 | -73.72229 | 3799 ft | 215 kts | 209° |
| 2026-04-22 19:51 | 40.95526 | -73.73183 | 3359 ft | 214 kts | 208° |
| 2026-04-22 19:51 | 40.94245 | -73.74115 | 3097 ft | 205 kts | 208° |
| 2026-04-22 19:51 | 40.93057 | -73.75056 | 3011 ft | 188 kts | 211° |
| 2026-04-22 19:52 | 40.92013 | -73.75916 | 3009 ft | 165 kts | 211° |
| 2026-04-22 19:52 | 40.91096 | -73.76675 | 2984 ft | 145 kts | 211° |
| 2026-04-22 19:52 | 40.90332 | -73.77306 | 2824 ft | 137 kts | 211° |
| 2026-04-22 19:52 | 40.89743 | -73.77795 | 2710 ft | 132 kts | 210° |
| 2026-04-22 19:53 | 40.89219 | -73.78223 | 2591 ft | 139 kts | 210° |
| 2026-04-22 19:53 | 40.88322 | -73.78963 | 2381 ft | 152 kts | 211° |
| 2026-04-22 19:53 | 40.87701 | -73.79478 | 2227 ft | 158 kts | 211° |
| 2026-04-22 19:53 | 40.86492 | -73.80480 | 1921 ft | 164 kts | 211° |
| 2026-04-22 19:54 | 40.85515 | -73.81293 | 1647 ft | 164 kts | 211° |
| 2026-04-22 19:54 | 40.84557 | -73.82092 | 1383 ft | 159 kts | 210° |
| 2026-04-22 19:54 | 40.83684 | -73.82811 | 1178 ft | 155 kts | 210° |
| 2026-04-22 19:54 | 40.82823 | -73.83524 | 1027 ft | 143 kts | 210° |
| 2026-04-22 19:55 | 40.82016 | -73.84193 | 835 ft | 130 kts | 209° |
| 2026-04-22 19:55 | 40.81288 | -73.84798 | 632 ft | 127 kts | 210° |
| 2026-04-22 19:55 | 40.80602 | -73.85375 | 538 ft | 127 kts | 210° |
| 2026-04-22 19:55 | 40.79927 | -73.85947 | 404 ft | 129 kts | 210° |
| 2026-04-22 19:56 | 40.79150 | -73.86587 | 184 ft | 129 kts | 212° |
| 2026-04-22 19:56 | 40.78411 | -73.87183 | 21 ft | 118 kts | 211° |
| 2026-04-22 19:56 | 40.77782 | -73.87694 | 6 ft | 95 kts | 212° |
| 2026-04-22 19:56 | 40.77367 | -73.88038 | 6 ft | 24 kts | 213° |
| 2026-04-22 19:57 | 40.77214 | -73.88166 | 6 ft | 23 kts | 212° |
| 2026-04-22 19:57 | 40.77134 | -73.88232 | 6 ft | 11 kts | 209° |
| 2026-04-22 19:57 | 40.77061 | -73.88213 | 6 ft | 13 kts | 128° |
| 2026-04-22 19:57 | 40.77088 | -73.88120 | 6 ft | 14 kts | 31° |
| 2026-04-22 19:58 | 40.77185 | -73.88041 | 6 ft | 17 kts | 32° |
| 2026-04-22 19:58 | 40.77298 | -73.87946 | 6 ft | 20 kts | 32° |
| 2026-04-22 19:58 | 40.77417 | -73.87848 | 6 ft | 15 kts | 31° |
| 2026-04-22 19:58 | 40.77485 | -73.87793 | 6 ft | 8 kts | 31° |
| 2026-04-22 19:59 | 40.77538 | -73.87749 | 6 ft | 10 kts | 32° |
| 2026-04-22 20:00 | 40.77710 | -73.87608 | 6 ft | 7 kts | 30° |
| 2026-04-22 20:00 | 40.77727 | -73.87594 | 6 ft | 0 kts | 30° |
| 2026-04-22 20:01 | 40.77754 | -73.87573 | 6 ft | 8 kts | 34° |
| 2026-04-22 20:01 | 40.77805 | -73.87491 | 6 ft | 2 kts | 61° |
| 2026-04-22 20:01 | 40.77811 | -73.87473 | 6 ft | 0 kts | 65° |
| 2026-04-22 20:01 | 40.77812 | -73.87472 | 6 ft | 0 kts | 64° |
| 2026-04-22 20:02 | 40.77814 | -73.87467 | 6 ft | 0 kts | 64° |
| 2026-04-22 20:02 | 40.77826 | -73.87431 | 6 ft | 8 kts | 70° |
| 2026-04-22 20:02 | 40.77837 | -73.87320 | 6 ft | 12 kts | 93° |
| 2026-04-22 20:03 | 40.77811 | -73.87214 | 6 ft | 12 kts | 117° |
| 2026-04-22 20:03 | 40.77801 | -73.87188 | 6 ft | 1 kts | 119° |
| 2026-04-22 20:03 | 40.77788 | -73.87161 | 6 ft | 3 kts | 122° |
| 2026-04-22 20:03 | 40.77772 | -73.87128 | 6 ft | 4 kts | 122° |
| 2026-04-22 20:04 | 40.77753 | -73.87091 | 6 ft | 4 kts | 125° |
| 2026-04-22 20:04 | 40.77735 | -73.87054 | 6 ft | 5 kts | 122° |
| 2026-04-22 20:04 | 40.77714 | -73.87011 | 6 ft | 2 kts | 122° |
| 2026-04-22 20:04 | 40.77714 | -73.87010 | 6 ft | 0 kts | 122° |
| 2026-04-22 20:05 | 40.77712 | -73.87006 | 6 ft | 0 kts | 121° |
| 2026-04-22 20:05 | 40.77703 | -73.86987 | 6 ft | 5 kts | 121° |
| 2026-04-22 20:05 | 40.77667 | -73.86910 | 6 ft | 13 kts | 122° |
| 2026-04-22 20:05 | 40.77623 | -73.86821 | 6 ft | 12 kts | 124° |
| 2026-04-22 20:06 | 40.77568 | -73.86707 | 6 ft | 18 kts | 121° |
| 2026-04-22 20:06 | 40.77499 | -73.86582 | 6 ft | 10 kts | 149° |
| 2026-04-22 20:06 | 40.77479 | -73.86573 | 6 ft | 0 kts | 174° |
| 2026-04-22 20:07 | 40.77478 | -73.86573 | 6 ft | 0 kts | 174° |
| 2026-04-22 20:08 | 40.77475 | -73.86573 | 6 ft | 0 kts | 174° |
| 2026-04-22 20:08 | 40.77472 | -73.86572 | 6 ft | 0 kts | 174° |
| 2026-04-22 20:08 | 40.77468 | -73.86571 | 6 ft | 0 kts | 174° |
| 2026-04-22 20:08 | 40.77465 | -73.86572 | 6 ft | 0 kts | 188° |
| 2026-04-22 20:09 | 40.77453 | -73.86609 | 6 ft | 8 kts | 276° |
| 2026-04-22 20:09 | 40.77488 | -73.86706 | 6 ft | 13 kts | 305° |
| 2026-04-22 20:09 | 40.77487 | -73.86792 | 6 ft | 7 kts | 240° |
| 2026-04-22 20:09 | 40.77470 | -73.86852 | 6 ft | 6 kts | 256° |
| 2026-04-22 20:10 | 40.77465 | -73.86880 | 6 ft | 0 kts | 257° |
| 2026-04-22 20:10 | 40.77464 | -73.86886 | 6 ft | 1 kts | 256° |
| 2026-04-22 20:10 | 40.77464 | -73.86889 | 6 ft | 0 kts | 256° |